createdAt,value
2019-02-22T00:02:41.175Z,99938.16
2019-02-22T00:05:11.807Z,99938.05
2019-02-22T00:07:42.101Z,99942.33
2019-02-22T00:10:12.332Z,99944.80
2019-02-22T00:12:42.601Z,99944.16
2019-02-22T00:15:12.880Z,99949.21
2019-02-22T00:17:43.138Z,99951.00
2019-02-22T00:20:14.158Z,99955.79
2019-02-22T00:22:45.094Z,99951.39
2019-02-22T00:25:15.933Z,99957.72
2019-02-22T00:27:46.736Z,99964.98
2019-02-22T00:30:17.416Z,99962.34
2019-02-22T00:32:48.016Z,99963.84
2019-02-22T00:35:18.843Z,99974.35
2019-02-22T00:37:49.060Z,99973.70
2019-02-22T00:40:19.622Z,99977.36
2019-02-22T00:42:50.511Z,99980.33
2019-02-22T00:45:21.096Z,99983.73
2019-02-22T00:47:51.376Z,99982.25
2019-02-22T00:50:21.936Z,99974.49
2019-02-22T00:52:52.569Z,99976.73
2019-02-22T00:55:23.049Z,99975.81
2019-02-22T00:57:53.751Z,99977.46
2019-02-22T01:00:24.163Z,99977.56
2019-02-22T01:02:55.209Z,99981.33
2019-02-22T01:05:26.049Z,99978.47
2019-02-22T01:07:56.516Z,99982.97
2019-02-22T01:10:31.299Z,99988.88
2019-02-22T01:12:59.181Z,99982.58
2019-02-22T01:15:30.266Z,99982.58
2019-02-22T01:18:00.464Z,99984.50
2019-02-22T01:20:31.116Z,99994.69
2019-02-22T01:23:02.014Z,99998.64
2019-02-22T01:25:32.393Z,100005.67
2019-02-22T01:28:03.448Z,100005.67
2019-02-22T01:30:34.119Z,100014.17
2019-02-22T01:33:05.071Z,100016.31
2019-02-22T01:35:36.089Z,100016.31
2019-02-22T01:38:06.655Z,100012.97
2019-02-22T01:40:43.722Z,100012.42
2019-02-22T01:43:09.413Z,100021.11
2019-02-22T01:45:39.955Z,100031.01
2019-02-22T01:48:10.257Z,100020.67
2019-02-22T01:50:40.809Z,100023.66
2019-02-22T01:53:11.772Z,100025.48
2019-02-22T01:55:42.375Z,100024.02
2019-02-22T01:58:12.669Z,100027.50
2019-02-22T02:00:42.937Z,100028.33
2019-02-22T02:03:13.201Z,100025.55
2019-02-22T02:05:43.784Z,100030.69
2019-02-22T02:08:14.921Z,100025.45
2019-02-22T02:10:53.930Z,100029.49
2019-02-22T02:13:18.322Z,100026.51
2019-02-22T02:15:48.826Z,100031.44
2019-02-22T02:18:19.046Z,100034.23
2019-02-22T02:20:49.820Z,100031.37
2019-02-22T02:23:21.016Z,100026.83
2019-02-22T02:25:51.592Z,100035.50
2019-02-22T02:28:22.227Z,100027.92
2019-02-22T02:30:52.862Z,100021.41
2019-02-22T02:33:23.418Z,100022.63
2019-02-22T02:35:54.127Z,100016.80
2019-02-22T02:38:25.167Z,100022.47
2019-02-22T02:41:08.067Z,100027.81
2019-02-22T02:43:28.027Z,100034.48
2019-02-22T02:45:58.374Z,100032.65
2019-02-22T02:48:30.385Z,100029.37
2019-02-22T02:51:00.996Z,100035.65
2019-02-22T02:53:31.530Z,100032.02
2019-02-22T02:56:02.194Z,100028.67
2019-02-22T02:58:32.780Z,100030.78
2019-02-22T03:01:03.309Z,100025.72
2019-02-22T03:03:33.530Z,100031.64
2019-02-22T03:06:21.777Z,100026.10
2019-02-22T03:08:53.103Z,100026.30
2019-02-22T03:11:23.986Z,100022.91
2019-02-22T03:13:54.598Z,100022.44
2019-02-22T03:19:37.233Z,100014.89
2019-02-22T03:22:07.461Z,100013.41
2019-02-22T03:24:37.838Z,100013.41
2019-02-22T03:27:08.825Z,100023.39
2019-02-22T03:29:39.448Z,100026.83
2019-02-22T03:32:10.193Z,100027.18
2019-02-22T03:34:40.672Z,100021.88
2019-02-22T03:37:11.002Z,100024.11
2019-02-22T03:39:42.532Z,100019.67
2019-02-22T03:42:12.818Z,100016.77
2019-02-22T03:44:43.087Z,100023.90
2019-02-22T03:47:13.696Z,100023.30
2019-02-22T03:49:44.609Z,100032.38
2019-02-22T03:52:34.297Z,100026.14
2019-02-22T03:55:04.748Z,100028.98
2019-02-22T03:57:35.344Z,100018.43
2019-02-22T04:00:06.270Z,100019.70
2019-02-22T04:02:37.235Z,100012.77
2019-02-22T04:05:07.581Z,100025.33
2019-02-22T04:07:38.184Z,100023.05
2019-02-22T04:10:10.162Z,100028.55
2019-02-22T04:12:40.433Z,100025.74
2019-02-22T04:15:10.843Z,100018.48
2019-02-22T04:17:41.480Z,99999.32
2019-02-22T04:20:11.742Z,99997.70
2019-02-22T04:22:44.445Z,100007.83
2019-02-22T04:25:13.999Z,100010.55
2019-02-22T04:27:44.982Z,100027.39
2019-02-22T04:30:15.918Z,100029.50
2019-02-22T04:32:46.203Z,100027.13
2019-02-22T04:35:16.825Z,100036.85
2019-02-22T04:37:47.064Z,100037.96
2019-02-22T04:40:17.629Z,100042.30
2019-02-22T04:42:48.666Z,100041.00
2019-02-22T04:45:19.184Z,100041.47
2019-02-22T04:47:49.917Z,100040.86
2019-02-22T04:50:20.598Z,100048.05
2019-02-22T04:52:51.207Z,100049.63
2019-02-22T04:55:21.721Z,100052.62
2019-02-22T04:57:52.609Z,100052.64
2019-02-22T05:00:23.624Z,100057.31
2019-02-22T05:02:54.874Z,100053.12
2019-02-22T05:05:26.421Z,100047.39
2019-02-22T05:07:57.086Z,100043.87
2019-02-22T05:10:27.756Z,100055.27
2019-02-22T05:12:58.092Z,100056.06
2019-02-22T05:15:28.586Z,100054.02
2019-02-22T05:18:00.838Z,100046.89
2019-02-22T05:20:31.751Z,100058.67
2019-02-22T05:23:04.418Z,100063.00
2019-02-22T05:25:35.012Z,100068.31
2019-02-22T05:28:05.732Z,100060.61
2019-02-22T05:30:36.671Z,100058.77
2019-02-22T05:33:07.347Z,100052.48
2019-02-22T05:35:37.990Z,100055.77
2019-02-22T05:38:09.947Z,100056.29
2019-02-22T05:40:40.644Z,100060.69
2019-02-22T05:43:11.239Z,100068.88
2019-02-22T05:45:42.151Z,100078.63
2019-02-22T05:48:12.476Z,100071.48
2019-02-22T05:50:42.956Z,100078.77
2019-02-22T05:53:13.831Z,100078.30
2019-02-22T05:55:44.700Z,100091.27
2019-02-22T05:58:15.711Z,100088.62
2019-02-22T06:00:46.673Z,100086.35
2019-02-22T06:03:17.637Z,100094.78
2019-02-22T06:05:47.879Z,100089.73
2019-02-22T06:08:18.118Z,100089.34
2019-02-22T06:10:48.977Z,100089.87
2019-02-22T06:13:19.713Z,100092.98
2019-02-22T06:15:50.052Z,100099.80
2019-02-22T06:18:23.153Z,100102.92
2019-02-22T06:20:53.177Z,100111.40
2019-02-22T06:23:24.231Z,100116.27
2019-02-22T06:25:54.880Z,100112.55
2019-02-22T06:28:25.220Z,100120.01
2019-02-22T06:30:55.736Z,100129.16
2019-02-22T06:33:26.101Z,100137.59
2019-02-22T06:35:56.404Z,100136.42
2019-02-22T06:38:26.726Z,100131.41
2019-02-22T06:40:57.057Z,100129.95
2019-02-22T06:43:27.628Z,100129.31
2019-02-22T06:45:58.336Z,100124.69
2019-02-22T06:48:28.662Z,100132.01
2019-02-22T06:50:59.294Z,100134.02
2019-02-22T06:53:29.551Z,100137.44
2019-02-22T06:56:00.143Z,100140.58
2019-02-22T06:58:31.088Z,100144.98
2019-02-22T07:01:02.788Z,100143.19
2019-02-22T07:03:33.319Z,100140.42
2019-02-22T07:06:05.689Z,100141.96
2019-02-22T07:08:36.684Z,100140.80
2019-02-22T07:11:15.334Z,100142.61
2019-02-22T07:13:45.929Z,100144.53
2019-02-22T07:16:16.214Z,100144.48
2019-02-22T07:18:49.842Z,100144.69
2019-02-22T07:21:19.571Z,100147.11
2019-02-22T07:23:50.247Z,100145.55
2019-02-22T07:26:20.852Z,100139.13
2019-02-22T07:28:51.169Z,100148.03
2019-02-22T07:31:21.508Z,100141.91
2019-02-22T07:33:52.141Z,100142.71
2019-02-22T07:36:22.808Z,100154.20
2019-02-22T07:38:53.872Z,100152.77
2019-02-22T07:41:24.358Z,100151.19
2019-02-22T07:43:55.387Z,100151.19
2019-02-22T07:46:26.108Z,100157.02
2019-02-22T07:48:56.480Z,100157.41
2019-02-22T07:51:27.190Z,100153.61
2019-02-22T07:53:57.625Z,100160.35
2019-02-22T07:56:28.217Z,100154.75
2019-02-22T07:58:59.387Z,100156.30
2019-02-22T08:01:30.019Z,100150.22
2019-02-22T08:04:00.519Z,100151.59
2019-02-22T08:06:31.373Z,100153.56
2019-02-22T08:09:02.121Z,100154.20
2019-02-22T08:11:34.244Z,100160.00
2019-02-22T08:14:04.519Z,100167.87
2019-02-22T08:16:35.097Z,100168.80
2019-02-22T08:19:05.357Z,100165.37
2019-02-22T08:21:35.979Z,100167.54
2019-02-22T08:24:06.907Z,100168.86
2019-02-22T08:26:37.540Z,100168.39
2019-02-22T08:29:07.819Z,100168.36
2019-02-22T08:31:39.300Z,100179.32
2019-02-22T08:34:10.088Z,100184.97
2019-02-22T08:36:40.992Z,100190.56
2019-02-22T08:39:11.520Z,100193.13
2019-02-22T08:41:42.105Z,100191.68
2019-02-22T08:44:12.323Z,100187.03
2019-02-22T08:46:43.340Z,100190.02
2019-02-22T08:49:13.937Z,100194.70
2019-02-22T08:51:44.782Z,100188.33
2019-02-22T08:54:16.237Z,100184.24
2019-02-22T08:56:47.261Z,100193.23
2019-02-22T08:59:17.529Z,100193.23
2019-02-22T09:01:48.164Z,100191.97
2019-02-22T09:04:18.350Z,100201.56
2019-02-22T09:06:48.900Z,100203.24
2019-02-22T09:09:19.825Z,100193.72
2019-02-22T09:11:50.483Z,100191.83
2019-02-22T09:14:20.826Z,100202.53
2019-02-22T09:16:51.878Z,100202.50
2019-02-22T09:19:22.445Z,100202.02
2019-02-22T09:21:53.616Z,100203.17
2019-02-22T09:24:24.171Z,100197.39
2019-02-22T09:26:54.725Z,100193.98
2019-02-22T09:29:25.792Z,100211.91
2019-02-22T09:31:57.372Z,100207.48
2019-02-22T09:34:27.616Z,100219.94
2019-02-22T09:36:58.199Z,100231.44
2019-02-22T09:39:28.471Z,100232.75
2019-02-22T09:41:59.062Z,100230.09
2019-02-22T09:44:29.563Z,100230.09
2019-02-22T09:47:00.118Z,100224.19
2019-02-22T09:49:30.849Z,100232.45
2019-02-22T09:52:01.379Z,100236.48
2019-02-22T09:54:32.492Z,100237.47
2019-02-22T09:57:03.466Z,100230.57
2019-02-22T09:59:33.772Z,100229.15
2019-02-22T10:02:04.639Z,100241.28
2019-02-22T10:04:35.578Z,100241.08
2019-02-22T10:07:07.883Z,100237.90
2019-02-22T10:09:38.578Z,100241.27
2019-02-22T10:12:09.322Z,100234.84
2019-02-22T10:14:40.252Z,100239.15
2019-02-22T10:17:10.851Z,100235.14
2019-02-22T10:19:42.225Z,100232.66
2019-02-22T10:22:13.169Z,100236.69
2019-02-22T10:24:43.657Z,100230.55
2019-02-22T10:27:14.191Z,100231.48
2019-02-22T10:29:44.855Z,100231.44
2019-02-22T10:32:16.016Z,100229.94
2019-02-22T10:34:46.396Z,100227.52
2019-02-22T10:37:17.330Z,100216.08
2019-02-22T10:39:47.573Z,100214.58
2019-02-22T10:42:18.116Z,100213.13
2019-02-22T10:44:48.740Z,100209.95
2019-02-22T10:47:19.583Z,100220.70
2019-02-22T10:49:49.884Z,100213.69
2019-02-22T10:52:21.530Z,100201.86
2019-02-22T10:54:52.120Z,100201.02
2019-02-22T10:57:22.394Z,100197.26
2019-02-22T10:59:53.189Z,100183.05
2019-02-22T11:02:23.550Z,100194.05
2019-02-22T11:04:54.486Z,100192.16
2019-02-22T11:07:25.042Z,100195.91
2019-02-22T11:09:56.706Z,100193.20
2019-02-22T11:12:27.340Z,100194.90
2019-02-22T11:14:57.647Z,100202.25
2019-02-22T11:17:28.163Z,100192.66
2019-02-22T11:19:59.239Z,100199.45
2019-02-22T11:22:30.239Z,100199.34
2019-02-22T11:25:00.454Z,100198.53
2019-02-22T11:27:30.924Z,100193.01
2019-02-22T11:30:01.794Z,100185.83
2019-02-22T11:32:33.792Z,100186.78
2019-02-22T11:35:04.079Z,100185.18
2019-02-22T11:37:34.306Z,100191.69
2019-02-22T11:40:05.419Z,100186.63
2019-02-22T11:42:35.695Z,100190.48
2019-02-22T11:45:05.966Z,100201.03
2019-02-22T11:47:36.714Z,100195.75
2019-02-22T11:50:07.677Z,100193.09
2019-02-22T11:52:38.770Z,100185.86
2019-02-22T11:55:09.174Z,100181.36
2019-02-22T11:57:39.755Z,100186.27
2019-02-22T12:00:13.806Z,100185.23
2019-02-22T12:02:45.334Z,100190.48
2019-02-22T12:05:15.938Z,100185.20
2019-02-22T12:07:47.023Z,100177.84
2019-02-22T12:10:17.303Z,100179.47
2019-02-22T12:12:48.620Z,100170.35
2019-02-22T12:15:18.997Z,100155.44
2019-02-22T12:17:49.360Z,100154.73
2019-02-22T12:20:19.619Z,100160.13
2019-02-22T12:22:50.053Z,100155.61
2019-02-22T12:25:20.690Z,100152.50
2019-02-22T12:27:51.191Z,100152.95
2019-02-22T12:30:21.881Z,100151.89
2019-02-22T12:32:54.676Z,100156.11
2019-02-22T12:35:26.030Z,100148.78
2019-02-22T12:37:56.396Z,100145.16
2019-02-22T12:40:27.603Z,100145.36
2019-02-22T12:42:59.252Z,100150.75
2019-02-22T12:45:29.852Z,100158.73
2019-02-22T12:48:00.130Z,100163.72
2019-02-22T12:50:30.714Z,100143.11
2019-02-22T12:53:01.458Z,100154.82
2019-02-22T12:55:31.768Z,100163.39
2019-02-22T12:58:02.055Z,100167.70
2019-02-22T13:00:32.533Z,100170.88
2019-02-22T13:03:03.496Z,100168.38
2019-02-22T13:05:33.766Z,100168.86
2019-02-22T13:08:04.214Z,100167.25
2019-02-22T13:10:34.603Z,100161.81
2019-02-22T13:13:04.985Z,100163.97
2019-02-22T13:15:35.579Z,100174.28
2019-02-22T13:18:05.836Z,100161.23
2019-02-22T13:20:36.640Z,100165.89
2019-02-22T13:23:06.845Z,100165.35
2019-02-22T13:25:38.485Z,100155.77
2019-02-22T13:28:09.564Z,100155.61
2019-02-22T13:30:39.877Z,100147.93
2019-02-22T13:33:10.162Z,100150.55
2019-02-22T13:35:42.173Z,100153.08
2019-02-22T13:38:12.765Z,100141.38
2019-02-22T13:40:43.353Z,100147.28
2019-02-22T13:43:15.162Z,100148.52
2019-02-22T13:45:45.481Z,100154.19
2019-02-22T13:48:15.778Z,100153.23
2019-02-22T13:50:46.377Z,100150.20
2019-02-22T13:53:16.964Z,100151.92
2019-02-22T13:55:47.534Z,100148.47
2019-02-22T13:58:17.796Z,100148.79
2019-02-22T14:00:48.396Z,100143.59
2019-02-22T14:03:19.032Z,100142.13
2019-02-22T14:05:50.010Z,100152.02
2019-02-22T14:08:20.906Z,100144.52
2019-02-22T14:10:51.227Z,100139.02
2019-02-22T14:13:21.589Z,100145.89
2019-02-22T14:15:52.041Z,100144.27
2019-02-22T14:18:23.117Z,100149.05
2019-02-22T14:20:54.916Z,100151.49
2019-02-22T14:23:25.870Z,100140.24
2019-02-22T14:25:56.400Z,100141.80
2019-02-22T14:28:26.952Z,100144.11
2019-02-22T14:30:57.249Z,100147.12
2019-02-22T14:33:27.819Z,100148.77
2019-02-22T14:35:58.371Z,100157.05
2019-02-22T14:38:28.621Z,100149.09
2019-02-22T14:40:59.232Z,100154.58
2019-02-22T14:43:29.483Z,100146.80
2019-02-22T14:46:00.061Z,100144.83
2019-02-22T14:48:30.679Z,100142.06
2019-02-22T14:51:00.924Z,100146.16
2019-02-22T14:53:31.460Z,100144.20
2019-02-22T14:56:02.690Z,100143.66
2019-02-22T14:58:34.353Z,100149.67
2019-02-22T15:01:05.140Z,100153.67
2019-02-22T15:03:35.566Z,100149.76
2019-02-22T15:06:07.393Z,100152.41
2019-02-22T15:08:37.807Z,100142.17
2019-02-22T15:11:08.389Z,100146.81
2019-02-22T15:13:38.955Z,100150.65
2019-02-22T15:16:38.376Z,100157.42
2019-02-22T15:19:08.997Z,100152.80
2019-02-22T15:21:40.558Z,100158.41
2019-02-22T15:24:11.497Z,100148.38
2019-02-22T15:26:41.818Z,100153.30
2019-02-22T15:29:12.674Z,100149.55
2019-02-22T15:31:42.975Z,100155.57
2019-02-22T15:34:13.364Z,100160.88
2019-02-22T15:36:43.947Z,100157.50
2019-02-22T15:39:14.680Z,100154.53
2019-02-22T15:41:45.361Z,100155.17
2019-02-22T15:44:16.004Z,100160.20
2019-02-22T15:46:46.574Z,100158.22
2019-02-22T15:49:16.867Z,100155.77
2019-02-22T15:51:47.120Z,100160.34
2019-02-22T15:54:18.235Z,100162.96
2019-02-22T15:56:48.524Z,100163.33
2019-02-22T15:59:20.913Z,100162.58
2019-02-22T16:01:55.581Z,100168.12
2019-02-22T16:04:51.143Z,100165.75
2019-02-22T16:07:21.443Z,100166.55
2019-02-22T16:09:51.682Z,100168.42
2019-02-22T16:12:21.925Z,100166.39
2019-02-22T16:14:52.228Z,100161.60
2019-02-22T16:17:22.513Z,100166.70
2019-02-22T16:19:54.193Z,100170.46
2019-02-22T16:22:24.515Z,100167.72
2019-02-22T16:24:54.709Z,100164.75
2019-02-22T16:27:24.971Z,100165.76
2019-02-22T16:29:55.475Z,100172.84
2019-02-22T16:32:27.718Z,100172.75
2019-02-22T16:34:57.918Z,100168.05
2019-02-22T16:37:28.501Z,100173.05
2019-02-22T16:39:59.146Z,100170.58
2019-02-22T16:42:29.905Z,100167.77
2019-02-22T16:45:00.711Z,100172.50
2019-02-22T16:47:39.558Z,100167.15
2019-02-22T16:50:03.911Z,100166.38
2019-02-22T16:52:34.548Z,100166.58
2019-02-22T16:55:05.670Z,100164.47
2019-02-22T16:57:35.912Z,100173.22
2019-02-22T17:00:07.158Z,100169.49
2019-02-22T17:02:38.092Z,100172.75
2019-02-22T17:05:09.777Z,100172.89
2019-02-22T17:07:41.679Z,100175.09
2019-02-22T17:10:12.494Z,100180.09
2019-02-22T17:12:42.728Z,100178.64
2019-02-22T17:15:13.090Z,100173.95
2019-02-22T17:17:43.730Z,100184.85
2019-02-22T17:20:14.361Z,100185.34
2019-02-22T17:22:45.130Z,100184.47
2019-02-22T17:25:16.406Z,100190.05
2019-02-22T17:27:46.633Z,100194.45
2019-02-22T17:30:16.878Z,100190.92
2019-02-22T17:32:47.518Z,100194.67
2019-02-22T17:35:17.709Z,100195.30
2019-02-22T17:37:48.288Z,100194.93
2019-02-22T17:40:18.554Z,100192.47
2019-02-22T17:42:49.558Z,100194.73
2019-02-22T17:45:20.143Z,100189.73
2019-02-22T17:47:51.168Z,100198.72
2019-02-22T17:50:21.703Z,100194.69
2019-02-22T17:52:52.269Z,100189.31
2019-02-22T17:55:22.976Z,100194.33
2019-02-22T17:57:53.216Z,100196.01
2019-02-22T18:00:24.948Z,100187.52
2019-02-22T18:02:55.514Z,100191.25
2019-02-22T18:05:26.551Z,100195.00
2019-02-22T18:07:57.124Z,100194.79
2019-02-22T18:10:27.369Z,100197.06
2019-02-22T18:12:58.248Z,100194.84
2019-02-22T18:15:28.874Z,100189.71
2019-02-22T18:17:59.508Z,100194.53
2019-02-22T18:20:29.802Z,100190.36
2019-02-22T18:23:00.113Z,100192.56
2019-02-22T18:25:30.347Z,100196.95
2019-02-22T18:28:00.904Z,100196.88
2019-02-22T18:30:31.096Z,100194.09
2019-02-22T18:33:01.322Z,100204.09
2019-02-22T18:35:32.553Z,100205.94
2019-02-22T18:38:02.785Z,100206.22
2019-02-22T18:40:33.355Z,100210.94
2019-02-22T18:43:03.643Z,100215.59
2019-02-22T18:45:34.207Z,100208.28
2019-02-22T18:48:06.449Z,100204.31
2019-02-22T18:50:37.311Z,100207.20
2019-02-22T18:53:07.692Z,100206.19
2019-02-22T18:55:48.873Z,100204.13
2019-02-22T18:58:09.884Z,100212.29
2019-02-22T19:00:40.103Z,100209.94
2019-02-22T19:03:10.452Z,100199.34
2019-02-22T19:05:40.663Z,100199.34
2019-02-22T19:08:11.211Z,100198.02
2019-02-22T19:10:41.511Z,100200.05
2019-02-22T19:13:11.720Z,100200.00
2019-02-22T19:15:41.956Z,100203.60
2019-02-22T19:18:12.177Z,100204.62
2019-02-22T19:20:42.732Z,100206.67
2019-02-22T19:23:13.541Z,100200.30
2019-02-22T19:25:44.143Z,100210.10
2019-02-22T19:28:14.743Z,100214.35
2019-02-22T19:30:45.243Z,100207.53
2019-02-22T19:33:15.823Z,100205.09
2019-02-22T19:35:46.331Z,100210.10
2019-02-22T19:38:16.536Z,100198.08
2019-02-22T19:40:47.151Z,100201.94
2019-02-22T19:43:17.727Z,100209.47
2019-02-22T19:45:48.085Z,100212.70
2019-02-22T19:48:18.276Z,100214.42
2019-02-22T19:50:49.209Z,100216.52
2019-02-22T19:53:21.487Z,100218.48
2019-02-22T19:55:52.180Z,100213.79
2019-02-22T19:58:22.719Z,100219.76
2019-02-22T20:00:53.516Z,100225.22
2019-02-22T20:03:24.824Z,100221.80
2019-02-22T20:05:55.454Z,100228.97
2019-02-22T20:08:25.787Z,100224.20
2019-02-22T20:10:56.823Z,100224.69
2019-02-22T20:13:27.554Z,100226.87
2019-02-22T20:15:58.495Z,100221.70
2019-02-22T20:18:29.826Z,100219.93
2019-02-22T20:21:00.025Z,100222.61
2019-02-22T20:23:30.695Z,100222.61
2019-02-22T20:26:00.884Z,100227.01
2019-02-22T20:28:31.227Z,100232.03
2019-02-22T20:31:01.427Z,100227.66
2019-02-22T20:33:31.641Z,100215.45
2019-02-22T20:36:02.312Z,100228.40
2019-02-22T20:38:32.599Z,100225.95
2019-02-22T20:41:03.486Z,100228.38
2019-02-22T20:43:33.751Z,100227.72
2019-02-22T20:46:04.748Z,100232.02
2019-02-22T20:48:35.752Z,100229.38
2019-02-22T20:51:07.333Z,100226.17
2019-02-22T20:53:37.972Z,100235.20
2019-02-22T20:56:08.608Z,100231.36
2019-02-22T20:58:39.572Z,100240.74
2019-02-22T21:01:14.765Z,100244.13
2019-02-22T21:03:43.367Z,100237.77
2019-02-22T21:06:13.896Z,100238.30
2019-02-22T21:08:44.221Z,100236.97
2019-02-22T21:11:14.524Z,100232.85
2019-02-22T21:13:44.842Z,100232.17
2019-02-22T21:16:15.108Z,100236.84
2019-02-22T21:18:46.357Z,100238.33
2019-02-22T21:21:17.775Z,100232.52
2019-02-22T21:23:48.412Z,100241.55
2019-02-22T21:26:19.122Z,100257.15
2019-02-22T21:28:49.451Z,100251.89
2019-02-22T21:31:20.018Z,100257.82
2019-02-22T21:33:50.650Z,100258.30
2019-02-22T21:36:21.244Z,100257.70
2019-02-22T21:38:51.850Z,100256.36
2019-02-22T21:41:22.103Z,100253.17
2019-02-22T21:43:52.421Z,100250.80
2019-02-22T21:46:23.182Z,100259.59
2019-02-22T21:48:53.514Z,100255.59
2019-02-22T21:51:24.900Z,100257.31
2019-02-22T21:53:55.457Z,100252.66
2019-02-22T21:56:26.434Z,100261.98
2019-02-22T21:58:57.289Z,100259.78
2019-02-22T22:01:27.588Z,100259.97
2019-02-22T22:03:57.953Z,100256.50
2019-02-22T22:06:29.071Z,100257.77
2019-02-22T22:08:59.734Z,100253.69
2019-02-22T22:11:30.356Z,100251.81
2019-02-22T22:14:00.714Z,100256.89
2019-02-22T22:16:31.701Z,100259.56
2019-02-22T22:19:02.090Z,100268.39
2019-02-22T22:21:32.960Z,100266.95
2019-02-22T22:24:03.313Z,100264.00
2019-02-22T22:26:33.606Z,100259.64
2019-02-22T22:29:03.993Z,100264.92
2019-02-22T22:31:34.266Z,100268.49
2019-02-22T22:34:05.491Z,100267.16
2019-02-22T22:36:35.731Z,100267.28
2019-02-22T22:39:06.754Z,100262.35
2019-02-22T22:41:37.809Z,100267.67
2019-02-22T22:44:08.125Z,100264.91
2019-02-22T22:46:38.487Z,100270.16
2019-02-22T22:49:09.141Z,100278.41
2019-02-22T22:51:40.343Z,100267.28
2019-02-22T22:54:10.702Z,100266.09
2019-02-22T22:56:41.399Z,100266.80
2019-02-22T22:59:12.581Z,100265.95
2019-02-22T23:01:43.482Z,100274.66
2019-02-22T23:04:14.936Z,100266.73
2019-02-22T23:06:45.563Z,100264.31
2019-02-22T23:09:22.241Z,100266.78
2019-02-22T23:11:52.722Z,100270.14
2019-02-22T23:14:23.074Z,100259.05
2019-02-22T23:16:53.752Z,100259.05
2019-02-22T23:19:24.316Z,100257.85
2019-02-22T23:21:54.638Z,100261.37
2019-02-22T23:24:24.970Z,100269.88
2019-02-22T23:26:55.388Z,100270.81
2019-02-22T23:29:25.819Z,100270.81
2019-02-22T23:31:56.164Z,100269.87
2019-02-22T23:34:27.022Z,100274.34
2019-02-22T23:36:57.502Z,100264.77
2019-02-22T23:39:27.852Z,100270.13
2019-02-22T23:41:58.795Z,100270.13
2019-02-22T23:44:29.715Z,100273.70
2019-02-22T23:46:59.957Z,100273.14
2019-02-22T23:49:30.629Z,100273.14
2019-02-22T23:52:00.915Z,100276.95
2019-02-22T23:54:31.242Z,100273.23
2019-02-22T23:57:01.451Z,100271.61
2019-02-22T23:59:32.230Z,100265.98
